createdAt,value
2022-08-03T00:01:38.243Z,1.60
2022-08-03T00:04:06.630Z,1.40
2022-08-03T00:06:37.124Z,1.50
2022-08-03T00:09:08.560Z,1.40
2022-08-03T00:11:36.691Z,1.50
2022-08-03T00:14:05.551Z,1.30
2022-08-03T00:16:33.102Z,1.40
2022-08-03T00:19:01.033Z,1.73
2022-08-03T00:21:29.260Z,1.33
2022-08-03T00:23:56.665Z,1.30
2022-08-03T00:26:23.993Z,1.27
2022-08-03T00:28:51.583Z,1.35
2022-08-03T00:31:22.264Z,1.35
2022-08-03T00:34:06.187Z,1.40
2022-08-03T00:36:34.412Z,1.45
2022-08-03T00:39:01.886Z,1.40
2022-08-03T00:41:29.175Z,1.20
2022-08-03T00:43:56.784Z,1.30
2022-08-03T00:46:24.061Z,1.50
2022-08-03T00:48:51.817Z,1.50
2022-08-03T00:51:20.486Z,1.50
2022-08-03T00:53:48.232Z,1.92
2022-08-03T00:56:16.754Z,1.42
2022-08-03T00:58:47.573Z,1.60
2022-08-03T01:01:15.696Z,2.17
2022-08-03T01:03:43.359Z,1.70
2022-08-03T01:06:18.404Z,1.50
2022-08-03T01:09:13.002Z,1.50
2022-08-03T01:12:03.448Z,1.63
2022-08-03T01:14:50.337Z,1.30
2022-08-03T01:17:29.726Z,1.57
2022-08-03T01:20:04.833Z,1.20
2022-08-03T01:22:50.170Z,1.50
2022-08-03T01:25:33.559Z,1.30
2022-08-03T01:28:03.732Z,1.53
2022-08-03T01:30:34.011Z,1.60
2022-08-03T01:33:05.934Z,1.73
2022-08-03T01:35:42.447Z,1.50
2022-08-03T01:38:20.460Z,1.30
2022-08-03T01:40:49.258Z,1.30
2022-08-03T01:43:55.255Z,1.37
2022-08-03T01:46:09.364Z,1.70
2022-08-03T01:48:40.436Z,1.70
2022-08-03T01:51:11.143Z,1.70
2022-08-03T01:53:44.562Z,1.83
2022-08-03T01:56:13.930Z,1.90
2022-08-03T01:58:42.734Z,2.30
2022-08-03T02:01:11.795Z,2.03
2022-08-03T02:03:59.896Z,2.10
2022-08-03T02:07:01.334Z,1.90
2022-08-03T02:09:20.573Z,2.03
2022-08-03T02:11:49.586Z,2.10
2022-08-03T02:14:18.554Z,2.13
2022-08-03T02:16:46.301Z,2.33
2022-08-03T02:19:14.762Z,2.20
2022-08-03T02:21:55.793Z,2.47
2022-08-03T02:24:25.170Z,2.60
2022-08-03T02:26:56.046Z,2.07
2022-08-03T02:29:40.243Z,1.77
2022-08-03T02:32:12.949Z,2.23
2022-08-03T02:34:42.777Z,2.43
2022-08-03T02:37:12.169Z,2.00
2022-08-03T02:39:42.960Z,1.90
2022-08-03T02:42:12.793Z,1.80
2022-08-03T02:44:47.694Z,2.73
2022-08-03T02:47:16.204Z,2.17
2022-08-03T02:49:51.011Z,2.40
2022-08-03T02:52:24.844Z,2.00
